Time;durP1;ratioP1;P1;durP2;ratioP2;P2;SDS_P1;SDS_P2;PMS_P1;PMS_P2;Temp;Humidity;BMP_temperature;BMP_pressure;BME280_temperature;BME280_humidity;BME280_pressure;Samples;Min_cycle;Max_cycle;Signal;HPM_P1;HPM_P2
2022/04/15 00:02:01;;;;;;;16.15;10.63;;;;;;;12.19;61.58;101208.33;1720184;83;21508;-77
2022/04/15 00:04:47;;;;;;;14.13;10.98;;;;;;;12.20;61.69;101212.20;1720473;83;21817;-79
2022/04/15 00:07:31;;;;;;;13.48;11.25;;;;;;;12.24;61.76;101215.17;1720274;83;21017;-80
2022/04/15 00:10:16;;;;;;;14.98;11.33;;;;;;;12.25;61.77;101209.55;1713765;83;22176;-78
2022/04/15 00:13:03;;;;;;;15.53;11.65;;;;;;;12.26;61.84;101213.42;1721742;83;21512;-79
2022/04/15 00:15:48;;;;;;;22.13;12.47;;;;;;;12.24;61.88;101207.39;1720208;82;21044;-78
2022/04/15 00:18:34;;;;;;;17.40;13.08;;;;;;;12.26;61.91;101210.83;1715364;81;338445;-79
2022/04/15 00:21:18;;;;;;;18.07;13.62;;;;;;;12.25;61.99;101207.81;1725497;81;20911;-78
2022/04/15 00:24:03;;;;;;;21.10;13.48;;;;;;;12.26;62.13;101208.67;1653144;86;20959;-78
2022/04/15 00:26:48;;;;;;;18.20;13.48;;;;;;;12.27;62.16;101203.91;1713318;83;20915;-78
2022/04/15 00:29:32;;;;;;;19.98;14.15;;;;;;;12.29;62.21;101201.29;1724690;82;20908;-77
2022/04/15 00:32:17;;;;;;;16.25;12.95;;;;;;;12.31;62.27;101204.28;1650059;86;20974;-78
2022/04/15 00:35:02;;;;;;;19.67;13.65;;;;;;;12.33;62.30;101201.23;1710815;83;21424;-77
2022/04/15 00:37:47;;;;;;;18.45;13.78;;;;;;;12.34;62.37;101202.09;1677584;85;21375;-77
2022/04/15 00:40:32;;;;;;;17.02;13.70;;;;;;;12.33;62.48;101203.82;1721593;83;21401;-77
2022/04/15 00:43:16;;;;;;;19.40;14.43;;;;;;;12.34;62.49;101202.09;1715548;82;21519;-76
2022/04/15 00:46:10;;;;;;;19.05;14.98;;;;;;;12.33;62.51;101195.19;1719406;82;20911;-78
2022/04/15 00:48:55;;;;;;;19.45;14.80;;;;;;;12.33;62.65;101199.93;1677557;85;21409;-77
2022/04/15 00:51:39;;;;;;;21.07;15.30;;;;;;;12.33;62.66;101196.04;1711568;83;20900;-76
2022/04/15 00:54:29;;;;;;;22.62;15.90;;;;;;;12.31;62.75;101191.75;1718811;83;20884;-78
2022/04/15 00:57:16;;;;;;;20.20;14.75;;;;;;;12.31;62.80;101188.72;1722156;82;20971;-78
2022/04/15 01:00:03;;;;;;;26.02;15.28;;;;;;;12.32;62.88;101190.44;1721178;82;20926;-78
2022/04/15 01:02:48;;;;;;;22.40;15.58;;;;;;;12.32;62.91;101183.95;1713004;81;20923;-77
2022/04/15 01:05:34;;;;;;;23.05;15.55;;;;;;;12.35;62.98;101179.16;1721223;83;20939;-77
2022/04/15 01:08:22;;;;;;;21.42;15.08;;;;;;;12.37;63.07;101187.34;1650129;86;20976;-77
2022/04/15 01:11:08;;;;;;;20.92;15.00;;;;;;;12.37;63.10;101175.67;1722079;82;20991;-79
2022/04/15 01:13:53;;;;;;;21.65;15.35;;;;;;;12.38;63.13;101177.83;1677852;85;20951;-78
2022/04/15 01:16:37;;;;;;;22.20;15.20;;;;;;;12.37;63.19;101177.41;1721619;82;20942;-79
2022/04/15 01:19:22;;;;;;;18.35;14.47;;;;;;;12.38;63.30;101179.12;1716242;81;20899;-77
2022/04/15 01:22:15;;;;;;;16.85;13.80;;;;;;;12.38;63.35;101183.87;1719683;82;21010;-79
2022/04/15 01:24:59;;;;;;;17.77;12.93;;;;;;;12.38;63.44;101186.90;1707198;83;21022;-77
2022/04/15 01:27:49;;;;;;;20.52;14.18;;;;;;;12.39;63.47;101181.69;1718829;82;21050;-77
2022/04/15 01:30:34;;;;;;;16.27;13.28;;;;;;;12.39;63.51;101179.09;1674361;85;21313;-77
2022/04/15 01:33:18;;;;;;;22.10;14.13;;;;;;;12.38;63.52;101184.30;1717716;83;21569;-77
2022/04/15 01:36:03;;;;;;;21.40;14.73;;;;;;;12.33;63.58;101179.19;1647430;86;20986;-77
2022/04/15 01:38:48;;;;;;;20.95;14.63;;;;;;;12.31;63.71;101174.90;1719209;82;21558;-77
2022/04/15 01:41:39;;;;;;;17.73;13.35;;;;;;;12.31;63.77;101169.27;1675228;85;21559;-76
2022/04/15 01:44:24;;;;;;;19.32;12.73;;;;;;;12.32;63.84;101176.61;1721529;83;20947;-78
2022/04/15 01:47:10;;;;;;;19.57;13.72;;;;;;;12.32;63.87;101175.31;1713913;83;22098;-76
2022/04/15 01:49:55;;;;;;;19.32;13.48;;;;;;;12.30;63.94;101172.75;1719548;83;21121;-76
2022/04/15 01:52:40;;;;;;;17.45;12.73;;;;;;;12.30;64.02;101169.30;1719099;83;21117;-78
2022/04/15 01:55:24;;;;;;;17.17;12.47;;;;;;;12.26;64.01;101171.93;1657882;85;20974;-78
2022/04/15 01:58:09;;;;;;;16.37;12.18;;;;;;;12.25;64.08;101166.77;1664082;85;21116;-78
2022/04/15 02:00:53;;;;;;;18.30;12.78;;;;;;;12.17;64.12;101160.83;1725331;81;20971;-77
2022/04/15 02:03:38;;;;;;;15.90;11.48;;;;;;;12.15;64.28;101167.33;1707386;82;20982;-78
2022/04/15 02:06:23;;;;;;;14.63;11.75;;;;;;;12.14;64.37;101162.16;1726683;82;21062;-77
2022/04/15 02:09:08;;;;;;;12.95;11.05;;;;;;;12.14;64.40;101166.05;1720045;81;21545;-78
2022/04/15 02:11:52;;;;;;;16.87;11.55;;;;;;;12.13;64.49;101165.19;1727115;82;21258;-78
2022/04/15 02:14:37;;;;;;;15.98;12.03;;;;;;;12.11;64.53;101164.36;1726371;83;21487;-79
2022/04/15 02:17:22;;;;;;;14.83;11.83;;;;;;;12.10;64.58;101163.94;1701943;82;21079;-78
2022/04/15 02:20:10;;;;;;;14.47;11.50;;;;;;;12.11;64.67;101164.80;1715217;83;21558;-79
2022/04/15 02:22:55;;;;;;;15.78;12.43;;;;;;;12.09;64.71;101163.52;1727508;83;20975;-77
2022/04/15 02:25:39;;;;;;;14.70;12.28;;;;;;;12.09;64.73;101160.07;1728965;82;20919;-78
2022/04/15 02:28:23;;;;;;;15.05;11.53;;;;;;;12.08;64.82;101160.95;1728569;82;21475;-78
2022/04/15 02:31:09;;;;;;;15.40;12.80;;;;;;;12.06;64.90;101155.78;1723004;82;21049;-78
2022/04/15 02:33:53;;;;;;;14.90;11.88;;;;;;;12.05;64.93;101155.80;1725694;82;21029;-79
2022/04/15 02:36:38;;;;;;;15.70;12.13;;;;;;;12.05;65.04;101157.10;1723014;83;21552;-79
2022/04/15 02:39:23;;;;;;;16.12;13.03;;;;;;;12.06;65.12;101150.59;1727189;82;21282;-79
2022/04/15 02:42:08;;;;;;;17.07;12.73;;;;;;;12.08;65.20;101151.87;1725559;83;21403;-78
2022/04/15 02:44:53;;;;;;;17.32;12.43;;;;;;;12.07;65.24;101146.27;1726741;82;21431;-78
2022/04/15 02:47:40;;;;;;;15.25;12.35;;;;;;;12.09;65.28;101147.11;1721485;83;21054;-78
2022/04/15 02:50:25;;;;;;;16.82;13.28;;;;;;;12.09;65.38;101145.81;1638422;83;5000988;-78
2022/04/15 02:53:09;;;;;;;15.40;12.28;;;;;;;12.09;65.36;101146.67;1638274;86;21605;-77
2022/04/15 02:55:54;;;;;;;16.73;12.85;;;;;;;12.09;65.42;101144.52;1698330;84;21106;-77
2022/04/15 02:58:38;;;;;;;17.60;13.05;;;;;;;12.07;65.51;101144.54;1695429;83;21343;-78
2022/04/15 03:01:23;;;;;;;18.85;13.25;;;;;;;12.08;65.58;101151.44;1688357;83;21763;-79
2022/04/15 03:04:07;;;;;;;17.87;13.28;;;;;;;12.11;65.62;101144.91;1682150;83;21398;-78
2022/04/15 03:06:52;;;;;;;18.60;13.00;;;;;;;12.11;65.65;101144.91;1684443;83;21005;-78
2022/04/15 03:09:37;;;;;;;16.65;12.55;;;;;;;12.11;65.71;101147.95;1682012;85;21051;-79
2022/04/15 03:12:21;;;;;;;18.92;13.08;;;;;;;12.09;65.73;101152.30;1693012;84;21489;-78
2022/04/15 03:15:09;;;;;;;15.53;12.23;;;;;;;12.09;65.80;101147.97;1692780;82;21020;-78
2022/04/15 03:17:54;;;;;;;16.82;12.47;;;;;;;12.07;65.91;101149.72;1689034;82;21059;-78
2022/04/15 03:20:38;;;;;;;17.73;13.22;;;;;;;12.07;65.97;101141.95;1673351;84;21641;-78
2022/04/15 03:23:23;;;;;;;17.73;12.98;;;;;;;12.06;65.95;101145.41;1675195;84;21494;-79
2022/04/15 03:26:08;;;;;;;19.25;13.93;;;;;;;12.04;66.04;101149.77;1670750;85;21057;-79
2022/04/15 03:28:52;;;;;;;17.35;13.35;;;;;;;12.04;66.15;101141.13;1669130;85;21150;-79
2022/04/15 03:31:37;;;;;;;18.92;13.78;;;;;;;12.04;66.21;101140.69;1681960;85;21093;-78
2022/04/15 03:34:21;;;;;;;18.35;13.18;;;;;;;12.06;66.27;101136.78;1676904;84;21103;-77
2022/04/15 03:37:06;;;;;;;15.32;12.15;;;;;;;12.06;66.35;101139.38;1681467;84;21005;-77
2022/04/15 03:39:52;;;;;;;17.32;13.40;;;;;;;12.06;66.33;101129.01;1695038;83;21120;-77
2022/04/15 03:42:51;;;;;;;18.32;13.88;;;;;;;12.04;66.42;101129.03;1682605;83;21061;-76
2022/04/15 03:45:36;;;;;;;16.05;12.93;;;;;;;12.06;66.57;101129.01;1682073;85;21085;-77
2022/04/15 03:48:20;;;;;;;15.60;13.00;;;;;;;12.07;66.58;101131.58;1681687;85;21042;-76
2022/04/15 03:51:05;;;;;;;15.65;12.75;;;;;;;12.05;66.60;101128.15;1681600;85;21497;-77
2022/04/15 03:53:49;;;;;;;17.90;13.13;;;;;;;12.05;66.69;101129.89;1676028;83;21151;-77
2022/04/15 03:56:34;;;;;;;17.10;12.68;;;;;;;12.06;66.75;101129.86;1678526;83;21053;-77
2022/04/15 03:59:19;;;;;;;16.55;12.88;;;;;;;12.07;66.78;101128.13;1672042;85;20977;-75
2022/04/15 04:02:04;;;;;;;13.28;11.55;;;;;;;12.07;66.84;101132.88;1674210;85;21057;-75
2022/04/15 04:04:48;;;;;;;17.50;12.85;;;;;;;12.07;66.88;101129.42;1673631;84;21026;-76
2022/04/15 04:07:33;;;;;;;14.78;12.90;;;;;;;12.06;66.90;101130.30;1674055;85;21041;-75
2022/04/15 04:10:18;;;;;;;16.60;13.70;;;;;;;12.05;67.00;101129.45;1671073;84;21097;-76
2022/04/15 04:13:03;;;;;;;16.05;13.08;;;;;;;12.07;67.08;101135.91;1664652;85;21097;-77
2022/04/15 04:15:48;;;;;;;17.50;14.27;;;;;;;12.07;67.07;101134.61;1674113;84;21093;-77
2022/04/15 04:18:33;;;;;;;19.92;16.00;;;;;;;12.07;67.15;101142.39;1646630;87;21096;-77
2022/04/15 04:21:19;;;;;;;21.93;15.98;;;;;;;12.03;67.16;101138.98;1663770;85;21053;-77
2022/04/15 04:24:05;;;;;;;20.50;14.35;;;;;;;11.99;67.29;101131.27;1661037;84;21608;-76
2022/04/15 04:26:49;;;;;;;21.10;14.68;;;;;;;11.99;67.33;101129.97;1674631;85;21540;-76
2022/04/15 04:29:34;;;;;;;18.73;13.53;;;;;;;11.94;67.53;101130.06;1674414;85;21116;-76
2022/04/15 04:32:20;;;;;;;16.75;12.50;;;;;;;11.91;67.51;101131.40;1674034;84;21051;-77
2022/04/15 04:35:07;;;;;;;16.57;12.75;;;;;;;11.86;67.54;101131.45;1674530;85;22108;-76
2022/04/15 04:37:52;;;;;;;16.12;12.47;;;;;;;11.81;67.48;101129.80;1674052;84;21029;-76
2022/04/15 04:40:37;;;;;;;14.87;12.28;;;;;;;11.76;67.60;101134.15;1648200;84;21674;-75
2022/04/15 04:43:23;;;;;;;13.55;11.73;;;;;;;11.75;67.77;101135.02;1657328;84;21493;-75
2022/04/15 04:46:08;;;;;;;15.98;12.28;;;;;;;11.76;67.82;101137.59;1675123;85;20989;-75
2022/04/15 04:48:52;;;;;;;13.78;11.80;;;;;;;11.78;67.90;101138.91;1674430;85;21040;-75
2022/04/15 04:51:37;;;;;;;13.68;11.90;;;;;;;11.78;67.95;101138.47;1673418;85;21588;-75
2022/04/15 04:54:22;;;;;;;15.80;11.75;;;;;;;11.79;68.00;101140.19;1668968;84;21025;-75
2022/04/15 04:57:06;;;;;;;15.13;12.10;;;;;;;11.81;68.01;101144.91;1663993;85;21084;-76
2022/04/15 04:59:51;;;;;;;13.75;12.25;;;;;;;11.83;68.12;101147.04;1683917;82;21020;-76
2022/04/15 05:02:36;;;;;;;17.90;13.55;;;;;;;11.87;68.18;101148.72;1673790;85;21481;-77
2022/04/15 05:05:20;;;;;;;16.48;13.50;;;;;;;11.89;68.17;101146.11;1678462;83;20964;-75
2022/04/15 05:08:06;;;;;;;19.75;15.58;;;;;;;11.93;68.24;101146.48;1684404;85;21092;-75
2022/04/15 05:10:51;;;;;;;19.60;15.65;;;;;;;11.95;68.31;101148.63;1685083;85;21080;-76
2022/04/15 05:13:35;;;;;;;19.52;16.95;;;;;;;12.00;68.36;101152.42;1683904;83;21376;-75
2022/04/15 05:16:20;;;;;;;19.23;16.05;;;;;;;12.04;68.40;101156.69;1684176;85;21642;-75
2022/04/15 05:19:04;;;;;;;22.13;18.07;;;;;;;12.06;68.45;101154.93;1683810;82;21073;-76
2022/04/15 05:21:49;;;;;;;21.15;16.73;;;;;;;12.10;68.49;101152.27;1656985;84;21096;-75
2022/04/15 05:24:34;;;;;;;24.25;17.02;;;;;;;12.16;68.55;101167.75;1678095;85;21504;-75
2022/04/15 05:27:18;;;;;;;23.57;18.60;;;;;;;12.21;68.62;101165.95;1684429;83;21081;-75
2022/04/15 05:30:05;;;;;;;22.50;17.10;;;;;;;12.25;68.58;101166.77;1673353;84;20973;-75
2022/04/15 05:32:50;;;;;;;22.27;17.60;;;;;;;12.24;68.61;101171.53;1684704;82;21540;-76
2022/04/15 05:35:34;;;;;;;22.93;18.15;;;;;;;12.22;68.66;101165.07;1683787;82;20933;-76
2022/04/15 05:38:18;;;;;;;24.07;18.20;;;;;;;12.26;68.72;101166.74;1681374;83;20937;-76
2022/04/15 05:41:03;;;;;;;23.22;18.75;;;;;;;12.27;68.71;101170.19;1684809;85;21533;-76
2022/04/15 05:43:47;;;;;;;22.13;17.60;;;;;;;12.25;68.76;101168.06;1675407;83;20946;-76
2022/04/15 05:46:32;;;;;;;20.97;17.70;;;;;;;12.25;68.78;101172.81;1671397;85;20941;-76
2022/04/15 05:49:18;;;;;;;23.87;19.57;;;;;;;12.24;68.78;101174.98;1684959;85;20925;-76
2022/04/15 05:52:04;;;;;;;21.52;18.87;;;;;;;12.23;68.86;101183.64;1686023;83;39044;-76
2022/04/15 05:54:48;;;;;;;23.10;18.82;;;;;;;12.22;68.88;101185.81;1684828;82;20975;-76
2022/04/15 05:57:32;;;;;;;23.55;19.95;;;;;;;12.19;69.01;101192.77;1684169;83;20966;-75
2022/04/15 06:00:17;;;;;;;24.12;19.82;;;;;;;12.19;68.97;101197.96;1669825;83;20914;-75
2022/04/15 06:03:02;;;;;;;25.17;20.62;;;;;;;12.16;68.96;101203.19;1660567;84;20996;-76
2022/04/15 06:05:48;;;;;;;22.87;20.40;;;;;;;12.14;69.04;101201.91;1679960;83;21375;-76
2022/04/15 06:08:32;;;;;;;23.40;20.07;;;;;;;12.10;69.12;101205.41;1674357;85;20944;-76
2022/04/15 06:11:16;;;;;;;27.37;20.95;;;;;;;12.10;69.27;101207.15;1650502;85;21214;-76
2022/04/15 06:14:03;;;;;;;28.60;21.25;;;;;;;12.11;69.28;101205.84;1682063;83;20982;-76
2022/04/15 06:16:47;;;;;;;25.43;19.95;;;;;;;12.10;69.19;101210.60;1666728;85;21095;-76
2022/04/15 06:19:32;;;;;;;24.05;20.68;;;;;;;12.09;69.35;101208.89;1679642;83;21676;-76
2022/04/15 06:22:16;;;;;;;25.20;20.72;;;;;;;12.11;69.42;101214.91;1673976;83;21469;-76
2022/04/15 06:25:01;;;;;;;26.12;21.02;;;;;;;12.10;69.33;101212.34;1637327;86;21564;-76
2022/04/15 06:27:46;;;;;;;24.77;20.32;;;;;;;12.07;69.39;101211.94;1631344;86;21119;-75
2022/04/15 06:30:30;;;;;;;27.27;20.25;;;;;;;12.07;69.46;101217.56;1647568;84;21118;-75
2022/04/15 06:33:22;;;;;;;27.27;20.80;;;;;;;12.04;69.44;101214.56;1648381;85;21074;-75
2022/04/15 06:36:07;;;;;;;25.48;20.77;;;;;;;12.02;69.50;101220.20;1648188;84;21125;-75
2022/04/15 06:38:51;;;;;;;26.80;21.00;;;;;;;12.01;69.62;101219.78;1675985;84;22135;-75
2022/04/15 06:41:36;;;;;;;25.48;21.27;;;;;;;12.08;69.70;101221.86;1635432;85;21079;-75
2022/04/15 06:44:20;;;;;;;31.75;22.17;;;;;;;12.13;69.71;101219.64;1642152;86;21592;-75
2022/04/15 06:47:06;;;;;;;25.75;21.10;;;;;;;12.18;69.73;101226.06;1615492;87;21131;-75
2022/04/15 06:49:50;;;;;;;29.75;22.27;;;;;;;12.20;69.74;101225.60;1652097;83;21065;-75
2022/04/15 06:52:36;;;;;;;28.32;20.85;;;;;;;12.22;69.79;101224.70;1674057;83;21062;-76
2022/04/15 06:55:21;;;;;;;25.12;21.23;;;;;;;12.23;69.83;101217.78;1685251;84;21133;-76
2022/04/15 06:58:06;;;;;;;27.90;21.50;;;;;;;12.20;69.80;101223.87;1685177;83;21427;-76
2022/04/15 07:00:52;;;;;;;27.42;21.37;;;;;;;12.20;69.96;101227.76;1684324;83;21617;-77
2022/04/15 07:03:39;;;;;;;25.60;21.23;;;;;;;12.25;70.03;101225.11;1658776;84;21268;-76
2022/04/15 07:06:23;;;;;;;;;;;;;;;12.28;70.09;101217.28;1689670;83;21094;-75
2022/04/15 07:09:08;;;;;;;25.97;19.73;;;;;;;12.28;70.36;101217.72;1680809;83;20242;-75
2022/04/15 07:11:53;;;;;;;26.90;20.80;;;;;;;12.28;70.05;101218.58;1661458;84;21891;-75
2022/04/15 07:14:38;;;;;;;23.90;19.35;;;;;;;12.32;70.10;101216.81;1661288;84;21102;-76
2022/04/15 07:17:24;;;;;;;21.95;18.12;;;;;;;12.36;70.17;101226.27;1684437;84;21623;-76
2022/04/15 07:20:10;;;;;;;24.98;19.15;;;;;;;12.39;70.17;101225.78;1648332;84;21161;-75
2022/04/15 07:22:58;;;;;;;26.50;20.68;;;;;;;12.45;70.19;101223.55;1649544;84;21060;-75
2022/04/15 07:25:42;;;;;;;24.63;18.27;;;;;;;12.52;70.26;101227.30;1675862;84;21498;-75
2022/04/15 07:28:27;;;;;;;22.65;18.60;;;;;;;12.62;70.36;101233.66;1678953;83;20992;-75
2022/04/15 07:31:11;;;;;;;24.55;17.70;;;;;;;12.73;70.41;101239.55;1672777;85;21005;-74
2022/04/15 07:33:56;;;;;;;21.65;17.50;;;;;;;12.80;70.27;101235.98;1676387;83;20951;-74
2022/04/15 07:39:25;;;;;;;19.77;16.55;;;;;;;12.79;70.35;101233.83;1674086;83;21104;-76
2022/04/15 07:42:12;;;;;;;22.67;16.63;;;;;;;12.73;70.22;101240.41;1679452;83;21073;-75
2022/04/15 07:44:56;;;;;;;17.62;14.55;;;;;;;12.70;70.41;101243.48;1662953;84;21560;-75
2022/04/15 07:47:42;;;;;;;20.12;14.25;;;;;;;12.71;70.37;101240.86;1674283;83;21053;-75
2022/04/15 07:50:26;;;;;;;16.20;13.57;;;;;;;12.71;70.44;101240.86;1678072;83;21121;-75
2022/04/15 07:53:11;;;;;;;18.02;12.68;;;;;;;12.70;70.44;101246.08;1629735;86;21153;-76
2022/04/15 07:55:56;;;;;;;14.10;11.85;;;;;;;12.70;70.46;101244.78;1635841;84;21546;-75
2022/04/15 07:58:40;;;;;;;14.78;11.63;;;;;;;12.67;70.48;101252.61;1654102;86;21114;-75
2022/04/15 08:01:30;;;;;;;14.70;10.78;;;;;;;12.61;70.56;101247.06;1628460;85;21464;-75
2022/04/15 08:04:13;;;;;;;11.83;10.32;;;;;;;12.50;70.42;101256.73;1627229;85;21024;-75
2022/04/15 08:06:58;;;;;;;13.88;10.55;;;;;;;12.40;70.48;101253.44;1639379;86;21139;-75
2022/04/15 08:09:43;;;;;;;15.08;10.88;;;;;;;12.32;70.43;101269.53;1629782;85;21991;-75
2022/04/15 08:12:28;;;;;;;14.13;10.23;;;;;;;12.21;70.44;101264.47;1628663;86;21710;-75
2022/04/15 08:15:13;;;;;;;15.18;10.23;;;;;;;12.13;70.55;101265.00;1624827;88;21138;-76
2022/04/15 08:17:57;;;;;;;13.80;9.15;;;;;;;12.11;70.52;101265.90;1618914;86;21275;-76
2022/04/15 08:20:42;;;;;;;13.75;9.05;;;;;;;12.08;70.55;101268.09;1625726;87;21549;-76
2022/04/15 08:23:27;;;;;;;12.70;9.03;;;;;;;12.05;70.56;101267.27;1618405;87;21390;-76
2022/04/15 08:26:12;;;;;;;11.75;9.33;;;;;;;12.03;70.57;101275.06;1627347;86;20995;-76
2022/04/15 08:28:57;;;;;;;11.33;8.28;;;;;;;12.04;70.64;101281.10;1617709;86;21102;-76
2022/04/15 08:31:42;;;;;;;11.00;8.40;;;;;;;12.02;70.66;101282.85;1624183;86;21131;-76
2022/04/15 08:34:26;;;;;;;10.13;7.08;;;;;;;12.04;70.64;101281.10;1626482;86;21086;-76
2022/04/15 08:37:13;;;;;;;11.40;6.95;;;;;;;11.99;70.66;101286.77;1622361;87;21026;-76
2022/04/15 08:39:57;;;;;;;11.50;7.95;;;;;;;11.91;70.60;101283.86;1622990;86;21047;-78
2022/04/15 08:42:44;;;;;;;9.83;7.58;;;;;;;11.84;70.67;101296.46;1617970;85;21116;-77
2022/04/15 08:45:29;;;;;;;8.83;7.85;;;;;;;11.80;70.75;101303.84;1665005;83;22128;-77
2022/04/15 08:48:15;;;;;;;15.48;7.22;;;;;;;11.81;70.81;101302.11;1670797;83;20919;-77
2022/04/15 08:51:01;;;;;;;13.55;8.50;;;;;;;11.77;70.72;101305.16;1671131;83;20958;-77
2022/04/15 08:53:48;;;;;;;8.68;7.47;;;;;;;11.74;70.83;101312.08;1672865;83;20979;-75
2022/04/15 08:56:33;;;;;;;10.72;7.70;;;;;;;11.73;70.79;101309.06;1671156;84;20942;-75
2022/04/15 08:59:17;;;;;;;9.60;7.12;;;;;;;11.70;70.82;101311.69;1667446;83;20991;-76
2022/04/15 09:02:03;;;;;;;9.40;7.08;;;;;;;11.67;70.84;101315.59;1667687;83;20950;-76
2022/04/15 09:04:47;;;;;;;8.55;7.60;;;;;;;11.65;70.92;101317.34;1669745;83;20910;-76
2022/04/15 09:07:34;;;;;;;12.88;8.48;;;;;;;11.67;70.95;101318.19;1664722;85;20915;-76
2022/04/15 09:10:18;;;;;;;8.38;7.55;;;;;;;11.63;70.85;101322.53;1669851;84;20943;-76
2022/04/15 09:13:05;;;;;;;8.95;7.35;;;;;;;11.60;70.91;101326.45;1668249;85;20959;-76
2022/04/15 09:15:50;;;;;;;7.80;7.00;;;;;;;11.58;70.81;101323.88;1668092;84;20959;-76
2022/04/15 09:18:38;;;;;;;8.90;8.00;;;;;;;11.55;70.87;101330.38;1667959;84;21021;-76
2022/04/15 09:21:24;;;;;;;9.43;7.22;;;;;;;11.52;70.86;101330.83;1666994;85;21554;-79
2022/04/15 09:24:10;;;;;;;11.45;9.05;;;;;;;11.49;70.92;101330.42;1671758;84;20942;-81
2022/04/15 09:26:55;;;;;;;8.95;8.03;;;;;;;11.46;70.98;101338.66;1670270;85;21105;-77
2022/04/15 09:29:40;;;;;;;10.15;8.03;;;;;;;11.47;71.03;101336.48;1651779;84;21100;-77
2022/04/15 09:32:27;;;;;;;8.80;8.00;;;;;;;11.50;71.04;101339.05;1655381;85;21471;-77
2022/04/15 09:35:16;;;;;;;8.38;7.55;;;;;;;11.51;71.06;101340.34;1661362;85;21002;-77
2022/04/15 09:38:04;;;;;;;13.83;8.50;;;;;;;11.48;71.01;101340.80;1667073;84;21097;-77
2022/04/15 09:40:49;;;;;;;12.15;8.63;;;;;;;11.47;71.04;101342.95;1663063;84;21467;-77
2022/04/15 09:43:39;;;;;;;10.08;8.35;;;;;;;11.45;70.98;101339.09;1655519;85;615076;-77
2022/04/15 09:46:27;;;;;;;9.48;6.90;;;;;;;11.45;71.05;101344.27;1669179;84;21109;-77
2022/04/15 09:49:13;;;;;;;11.12;6.50;;;;;;;11.37;71.00;101338.32;1669854;84;21009;-77
2022/04/15 09:51:59;;;;;;;;;;;;;;;11.32;71.14;101345.27;1670330;83;21098;-77
2022/04/15 09:54:47;;;;;;;7.53;5.92;;;;;;;11.26;71.07;101345.30;1667432;84;20234;-77
2022/04/15 09:57:33;;;;;;;9.90;5.42;;;;;;;11.20;71.06;101344.91;1669241;84;21078;-77
2022/04/15 10:00:20;;;;;;;9.70;6.17;;;;;;;11.19;71.14;101350.09;1682194;84;21057;-77
2022/04/15 10:03:14;;;;;;;7.80;5.28;;;;;;;11.25;71.14;101353.94;1679672;83;21017;-77
2022/04/15 10:05:59;;;;;;;5.83;5.05;;;;;;;11.28;71.10;101357.80;1679691;84;21065;-77
2022/04/15 10:08:43;;;;;;;9.10;5.87;;;;;;;11.31;71.01;101359.52;1678568;83;21073;-77
2022/04/15 10:11:32;;;;;;;5.92;5.35;;;;;;;11.33;71.05;101359.92;1679711;83;21049;-77
2022/04/15 10:14:21;;;;;;;7.70;5.58;;;;;;;11.40;71.06;101355.56;1648912;85;21504;-76
2022/04/15 10:17:05;;;;;;;6.90;5.33;;;;;;;11.41;71.05;101354.25;1679093;83;21085;-76
2022/04/15 10:19:49;;;;;;;6.72;5.60;;;;;;;11.43;70.94;101353.81;1660644;83;21627;-76
2022/04/15 10:22:38;;;;;;;6.10;5.50;;;;;;;11.46;71.05;101362.81;1680643;83;21029;-76
2022/04/15 10:25:22;;;;;;;6.37;5.78;;;;;;;11.53;71.13;101361.90;1678041;84;21022;-76
2022/04/15 10:28:14;;;;;;;7.53;5.87;;;;;;;11.65;71.11;101364.83;1675652;83;21069;-77
2022/04/15 10:31:15;;;;;;;6.78;5.97;;;;;;;11.67;70.90;101368.70;1685877;83;21557;-77
2022/04/15 10:34:10;;;;;;;6.62;5.83;;;;;;;11.71;71.02;101363.92;1680299;83;21117;-76
2022/04/15 10:36:56;;;;;;;6.83;6.15;;;;;;;11.72;70.89;101359.16;1674366;83;21463;-76
2022/04/15 10:39:48;;;;;;;7.15;6.45;;;;;;;11.70;70.87;101363.50;1655211;83;21100;-76
2022/04/15 10:42:33;;;;;;;8.90;7.20;;;;;;;11.69;70.94;101361.34;1671561;83;21009;-77
2022/04/15 10:45:29;;;;;;;10.88;7.78;;;;;;;11.77;71.03;101362.17;1642209;85;21093;-77
2022/04/15 10:48:18;;;;;;;8.45;7.42;;;;;;;11.85;71.08;101364.25;1671067;83;26908;-76
2022/04/15 10:51:25;;;;;;;8.30;7.22;;;;;;;11.92;70.95;101362.03;1674848;83;20937;-77
2022/04/15 10:54:42;;;;;;;9.03;7.72;;;;;;;11.95;70.97;101360.28;1678336;83;20981;-77
2022/04/15 10:57:36;;;;;;;6.97;6.00;;;;;;;11.89;70.81;101368.97;1672365;83;20922;-76
2022/04/15 11:03:29;;;;;;;5.60;5.05;;;;;;;11.63;70.73;101370.45;1668544;85;21105;-76
2022/04/15 11:06:19;;;;;;;7.62;5.03;;;;;;;11.48;70.67;101367.98;1665111;83;20966;-76
2022/04/15 11:09:16;;;;;;;5.70;4.92;;;;;;;11.34;70.67;101372.44;1669190;85;21611;-75
2022/04/15 11:12:03;;;;;;;8.95;5.20;;;;;;;11.18;70.69;101372.97;1662540;85;20963;-75
2022/04/15 11:14:47;;;;;;;7.47;5.65;;;;;;;11.03;70.72;101380.83;1663033;85;21503;-75
2022/04/15 11:17:46;;;;;;;7.65;5.65;;;;;;;10.95;70.76;101383.45;1664324;84;21017;-75
2022/04/15 11:20:31;;;;;;;9.58;5.25;;;;;;;10.90;70.78;101379.63;1669180;83;21510;-76
2022/04/15 11:23:16;;;;;;;9.20;5.30;;;;;;;10.87;70.85;101381.37;1661996;84;21123;-76
2022/04/15 11:26:02;;;;;;;8.23;5.93;;;;;;;10.85;70.86;101381.80;1643970;84;21590;-76
2022/04/15 11:28:50;;;;;;;7.78;6.97;;;;;;;10.82;70.79;101385.70;1658793;84;21126;-76
2022/04/15 11:31:38;;;;;;;9.08;5.92;;;;;;;10.84;70.82;101392.59;1669266;84;21069;-76
2022/04/15 11:34:22;;;;;;;10.13;6.83;;;;;;;10.88;70.93;101392.14;1669911;85;21400;-76
2022/04/15 11:37:09;;;;;;;8.15;7.30;;;;;;;10.91;70.85;101395.58;1670241;85;20966;-76
2022/04/15 11:39:53;;;;;;;9.18;7.65;;;;;;;10.89;70.79;101397.74;1648043;84;20958;-75
2022/04/15 11:42:38;;;;;;;8.63;7.53;;;;;;;10.84;70.79;101393.02;1669342;83;20951;-75
2022/04/15 11:45:36;;;;;;;10.68;7.90;;;;;;;10.80;70.83;101393.91;1670654;84;20923;-76
2022/04/15 11:48:23;;;;;;;8.78;6.97;;;;;;;10.76;70.78;101398.66;1665833;85;21387;-76
2022/04/15 11:51:08;;;;;;;8.98;7.17;;;;;;;10.72;70.85;101397.81;1663394;85;20967;-75
2022/04/15 11:53:54;;;;;;;8.58;7.70;;;;;;;10.77;70.96;101400.38;1665442;84;20915;-76
2022/04/15 11:56:40;;;;;;;9.45;7.83;;;;;;;10.83;70.93;101403.80;1666820;84;20966;-75
2022/04/15 11:59:25;;;;;;;8.53;7.30;;;;;;;10.89;70.85;101402.48;1671233;83;20994;-75
2022/04/15 12:02:18;;;;;;;7.95;7.15;;;;;;;10.90;70.89;101402.05;1663318;82;21916;-76
2022/04/15 12:05:01;;;;;;;11.80;7.92;;;;;;;10.93;70.93;101409.77;1666514;84;21443;-75
2022/04/15 12:07:46;;;;;;;8.80;7.50;;;;;;;10.96;70.91;101409.75;1665186;83;20923;-78
2022/04/15 12:10:30;;;;;;;8.63;7.72;;;;;;;10.97;70.80;101415.36;1667070;83;20967;-81
2022/04/15 12:13:17;;;;;;;10.75;7.33;;;;;;;10.92;70.72;101414.52;1667450;84;21835;-78
2022/04/15 12:16:01;;;;;;;9.53;6.85;;;;;;;10.87;70.87;101411.98;1661027;83;20963;-77
2022/04/15 12:18:47;;;;;;;12.75;6.72;;;;;;;10.88;70.88;101417.58;1667124;85;20958;-78
2022/04/15 12:21:33;;;;;;;9.70;7.15;;;;;;;10.89;70.90;101419.30;1643071;84;20966;-78
2022/04/15 12:24:30;;;;;;;7.35;6.05;;;;;;;10.86;70.82;101419.31;1669594;84;20959;-77
2022/04/15 12:27:12;;;;;;;6.62;5.70;;;;;;;10.82;70.82;101419.34;1665824;84;21435;-76
2022/04/15 12:29:56;;;;;;;6.47;5.90;;;;;;;10.78;70.84;101419.78;1663204;83;20978;-77
2022/04/15 12:32:42;;;;;;;8.25;5.67;;;;;;;10.74;70.81;101420.66;1657556;84;21026;-77
2022/04/15 12:35:27;;;;;;;6.72;5.45;;;;;;;10.70;70.81;101426.70;1652748;85;21029;-77
2022/04/15 12:38:12;;;;;;;7.65;5.83;;;;;;;10.66;70.86;101425.42;1658278;84;21100;-77
2022/04/15 12:41:03;;;;;;;5.00;4.60;;;;;;;10.66;70.91;101420.25;1665880;84;21017;-77
2022/04/15 12:43:47;;;;;;;7.25;5.00;;;;;;;10.69;70.99;101426.71;1670818;83;20938;-77
2022/04/15 12:46:32;;;;;;;6.28;4.78;;;;;;;10.68;70.85;101422.41;1658959;84;20935;-78